sensor_id;sensor_type;location;lat;lon;timestamp;P1;durP1;ratioP1;P2;durP2;ratioP2
55692;SDS011;41590;53.366;5.212;2022-12-10T00:01:10;149.32;;;34.42;;
55692;SDS011;41590;53.366;5.212;2022-12-10T00:03:37;138.18;;;35.97;;
55692;SDS011;41590;53.366;5.212;2022-12-10T00:06:04;121.35;;;34.88;;
55692;SDS011;41590;53.366;5.212;2022-12-10T00:08:32;123.47;;;34.28;;
55692;SDS011;41590;53.366;5.212;2022-12-10T00:10:58;118.90;;;34.63;;
55692;SDS011;41590;53.366;5.212;2022-12-10T00:13:24;121.65;;;34.08;;
55692;SDS011;41590;53.366;5.212;2022-12-10T00:15:50;107.22;;;34.00;;
55692;SDS011;41590;53.366;5.212;2022-12-10T00:18:16;126.75;;;35.47;;
55692;SDS011;41590;53.366;5.212;2022-12-10T00:20:42;158.90;;;39.40;;
55692;SDS011;41590;53.366;5.212;2022-12-10T00:23:09;119.10;;;32.75;;
55692;SDS011;41590;53.366;5.212;2022-12-10T00:25:36;128.65;;;35.85;;
55692;SDS011;41590;53.366;5.212;2022-12-10T00:28:02;133.57;;;33.38;;
55692;SDS011;41590;53.366;5.212;2022-12-10T00:30:28;139.07;;;35.47;;
55692;SDS011;41590;53.366;5.212;2022-12-10T00:32:54;183.88;;;39.30;;
55692;SDS011;41590;53.366;5.212;2022-12-10T00:35:21;175.93;;;36.38;;
55692;SDS011;41590;53.366;5.212;2022-12-10T00:37:47;191.10;;;40.20;;
55692;SDS011;41590;53.366;5.212;2022-12-10T00:40:13;221.27;;;39.33;;
55692;SDS011;41590;53.366;5.212;2022-12-10T00:42:39;229.90;;;40.65;;
55692;SDS011;41590;53.366;5.212;2022-12-10T00:45:05;179.63;;;37.50;;
55692;SDS011;41590;53.366;5.212;2022-12-10T00:47:31;193.85;;;38.95;;
55692;SDS011;41590;53.366;5.212;2022-12-10T00:49:58;198.80;;;37.50;;
55692;SDS011;41590;53.366;5.212;2022-12-10T00:52:24;147.77;;;36.13;;
55692;SDS011;41590;53.366;5.212;2022-12-10T00:54:50;242.75;;;41.13;;
55692;SDS011;41590;53.366;5.212;2022-12-10T00:57:15;247.95;;;41.33;;
55692;SDS011;41590;53.366;5.212;2022-12-10T00:59:42;204.90;;;38.03;;
55692;SDS011;41590;53.366;5.212;2022-12-10T01:02:08;214.07;;;39.05;;
55692;SDS011;41590;53.366;5.212;2022-12-10T01:04:34;211.45;;;40.78;;
55692;SDS011;41590;53.366;5.212;2022-12-10T01:07:00;235.60;;;45.38;;
55692;SDS011;41590;53.366;5.212;2022-12-10T01:09:28;232.13;;;46.08;;
55692;SDS011;41590;53.366;5.212;2022-12-10T01:11:56;144.68;;;35.63;;
55692;SDS011;41590;53.366;5.212;2022-12-10T01:14:27;306.63;;;43.72;;
55692;SDS011;41590;53.366;5.212;2022-12-10T01:16:56;166.45;;;36.53;;
55692;SDS011;41590;53.366;5.212;2022-12-10T01:19:24;154.48;;;35.53;;
55692;SDS011;41590;53.366;5.212;2022-12-10T01:21:50;189.80;;;38.58;;
55692;SDS011;41590;53.366;5.212;2022-12-10T01:24:22;133.52;;;33.92;;
55692;SDS011;41590;53.366;5.212;2022-12-10T01:26:49;158.43;;;36.03;;
55692;SDS011;41590;53.366;5.212;2022-12-10T01:29:15;148.32;;;34.30;;
55692;SDS011;41590;53.366;5.212;2022-12-10T01:31:41;155.48;;;35.35;;
55692;SDS011;41590;53.366;5.212;2022-12-10T01:34:09;162.65;;;35.05;;
55692;SDS011;41590;53.366;5.212;2022-12-10T01:36:39;180.35;;;37.65;;
55692;SDS011;41590;53.366;5.212;2022-12-10T01:39:10;195.38;;;41.05;;
55692;SDS011;41590;53.366;5.212;2022-12-10T01:41:41;243.20;;;37.28;;
55692;SDS011;41590;53.366;5.212;2022-12-10T01:46:40;378.85;;;46.17;;
55692;SDS011;41590;53.366;5.212;2022-12-10T01:49:16;442.92;;;47.17;;
55692;SDS011;41590;53.366;5.212;2022-12-10T01:51:44;594.10;;;58.15;;
55692;SDS011;41590;53.366;5.212;2022-12-10T01:54:18;334.13;;;42.10;;
55692;SDS011;41590;53.366;5.212;2022-12-10T01:56:52;413.23;;;47.63;;
55692;SDS011;41590;53.366;5.212;2022-12-10T02:01:59;377.10;;;47.05;;
55692;SDS011;41590;53.366;5.212;2022-12-10T02:07:24;324.38;;;42.85;;
55692;SDS011;41590;53.366;5.212;2022-12-10T02:15:17;272.55;;;40.55;;
55692;SDS011;41590;53.366;5.212;2022-12-10T02:23:10;264.23;;;38.20;;
55692;SDS011;41590;53.366;5.212;2022-12-10T02:30:48;297.20;;;42.28;;
55692;SDS011;41590;53.366;5.212;2022-12-10T02:33:16;276.83;;;36.47;;
55692;SDS011;41590;53.366;5.212;2022-12-10T02:35:43;393.00;;;40.30;;
55692;SDS011;41590;53.366;5.212;2022-12-10T02:38:16;427.80;;;44.42;;
55692;SDS011;41590;53.366;5.212;2022-12-10T02:40:47;239.00;;;35.13;;
55692;SDS011;41590;53.366;5.212;2022-12-10T02:43:16;614.38;;;50.83;;
55692;SDS011;41590;53.366;5.212;2022-12-10T02:45:42;420.25;;;41.90;;
55692;SDS011;41590;53.366;5.212;2022-12-10T02:48:10;525.25;;;45.63;;
55692;SDS011;41590;53.366;5.212;2022-12-10T02:50:40;363.38;;;39.95;;
55692;SDS011;41590;53.366;5.212;2022-12-10T02:53:06;484.60;;;44.05;;
55692;SDS011;41590;53.366;5.212;2022-12-10T02:55:36;459.23;;;41.08;;
55692;SDS011;41590;53.366;5.212;2022-12-10T02:58:22;226.25;;;36.70;;
55692;SDS011;41590;53.366;5.212;2022-12-10T03:01:10;342.45;;;38.47;;
55692;SDS011;41590;53.366;5.212;2022-12-10T03:03:53;335.50;;;39.53;;
55692;SDS011;41590;53.366;5.212;2022-12-10T03:09:13;342.73;;;36.10;;
55692;SDS011;41590;53.366;5.212;2022-12-10T03:11:49;304.85;;;36.10;;
55692;SDS011;41590;53.366;5.212;2022-12-10T03:14:24;315.98;;;36.10;;
55692;SDS011;41590;53.366;5.212;2022-12-10T03:16:57;430.10;;;39.67;;
55692;SDS011;41590;53.366;5.212;2022-12-10T03:19:28;464.30;;;40.38;;
55692;SDS011;41590;53.366;5.212;2022-12-10T03:22:04;405.90;;;41.35;;
55692;SDS011;41590;53.366;5.212;2022-12-10T03:24:32;497.42;;;45.60;;
55692;SDS011;41590;53.366;5.212;2022-12-10T03:27:01;489.75;;;43.80;;
55692;SDS011;41590;53.366;5.212;2022-12-10T03:29:33;718.83;;;55.67;;
55692;SDS011;41590;53.366;5.212;2022-12-10T03:32:12;556.55;;;49.50;;
55692;SDS011;41590;53.366;5.212;2022-12-10T03:34:39;588.15;;;49.47;;
55692;SDS011;41590;53.366;5.212;2022-12-10T03:37:06;365.52;;;42.58;;
55692;SDS011;41590;53.366;5.212;2022-12-10T03:39:32;348.05;;;45.00;;
55692;SDS011;41590;53.366;5.212;2022-12-10T03:41:59;213.57;;;40.67;;
55692;SDS011;41590;53.366;5.212;2022-12-10T03:44:31;126.22;;;35.38;;
55692;SDS011;41590;53.366;5.212;2022-12-10T03:47:06;132.63;;;34.97;;
55692;SDS011;41590;53.366;5.212;2022-12-10T03:49:33;109.70;;;31.45;;
55692;SDS011;41590;53.366;5.212;2022-12-10T03:51:59;133.70;;;33.22;;
55692;SDS011;41590;53.366;5.212;2022-12-10T03:54:28;134.23;;;33.78;;
55692;SDS011;41590;53.366;5.212;2022-12-10T03:56:54;123.32;;;33.25;;
55692;SDS011;41590;53.366;5.212;2022-12-10T03:59:20;141.20;;;34.08;;
55692;SDS011;41590;53.366;5.212;2022-12-10T04:01:45;118.53;;;33.58;;
55692;SDS011;41590;53.366;5.212;2022-12-10T04:04:11;93.47;;;30.17;;
55692;SDS011;41590;53.366;5.212;2022-12-10T04:06:38;87.25;;;29.45;;
55692;SDS011;41590;53.366;5.212;2022-12-10T04:09:04;106.60;;;31.58;;
55692;SDS011;41590;53.366;5.212;2022-12-10T04:11:31;517.08;;;52.92;;
55692;SDS011;41590;53.366;5.212;2022-12-10T04:13:57;559.08;;;55.50;;
55692;SDS011;41590;53.366;5.212;2022-12-10T04:16:41;722.70;;;64.97;;
55692;SDS011;41590;53.366;5.212;2022-12-10T04:19:08;744.47;;;61.45;;
55692;SDS011;41590;53.366;5.212;2022-12-10T04:21:37;512.92;;;53.90;;
55692;SDS011;41590;53.366;5.212;2022-12-10T04:24:24;217.05;;;39.03;;
55692;SDS011;41590;53.366;5.212;2022-12-10T04:27:11;228.57;;;40.03;;
55692;SDS011;41590;53.366;5.212;2022-12-10T04:29:43;149.57;;;38.90;;
55692;SDS011;41590;53.366;5.212;2022-12-10T04:32:09;146.23;;;37.17;;
55692;SDS011;41590;53.366;5.212;2022-12-10T04:34:36;159.40;;;40.50;;
55692;SDS011;41590;53.366;5.212;2022-12-10T04:37:02;183.02;;;42.55;;
55692;SDS011;41590;53.366;5.212;2022-12-10T04:39:29;142.32;;;39.58;;
55692;SDS011;41590;53.366;5.212;2022-12-10T04:41:55;127.90;;;39.20;;
55692;SDS011;41590;53.366;5.212;2022-12-10T04:44:20;168.38;;;41.65;;
55692;SDS011;41590;53.366;5.212;2022-12-10T04:46:46;329.92;;;49.90;;
55692;SDS011;41590;53.366;5.212;2022-12-10T04:49:13;444.50;;;52.65;;
55692;SDS011;41590;53.366;5.212;2022-12-10T04:51:40;327.38;;;47.72;;
55692;SDS011;41590;53.366;5.212;2022-12-10T04:54:07;311.15;;;47.45;;
55692;SDS011;41590;53.366;5.212;2022-12-10T04:56:33;383.75;;;45.90;;
55692;SDS011;41590;53.366;5.212;2022-12-10T04:58:59;431.33;;;47.88;;
55692;SDS011;41590;53.366;5.212;2022-12-10T05:01:25;506.95;;;50.28;;
55692;SDS011;41590;53.366;5.212;2022-12-10T05:03:52;368.00;;;41.78;;
55692;SDS011;41590;53.366;5.212;2022-12-10T05:06:19;392.50;;;42.42;;
55692;SDS011;41590;53.366;5.212;2022-12-10T05:08:48;316.00;;;40.60;;
55692;SDS011;41590;53.366;5.212;2022-12-10T05:11:18;286.60;;;38.53;;
55692;SDS011;41590;53.366;5.212;2022-12-10T05:13:46;253.68;;;38.22;;
55692;SDS011;41590;53.366;5.212;2022-12-10T05:16:13;310.75;;;41.75;;
55692;SDS011;41590;53.366;5.212;2022-12-10T05:18:41;212.75;;;35.63;;
55692;SDS011;41590;53.366;5.212;2022-12-10T05:21:09;228.32;;;36.60;;
55692;SDS011;41590;53.366;5.212;2022-12-10T05:23:39;174.18;;;34.53;;
55692;SDS011;41590;53.366;5.212;2022-12-10T05:26:08;162.00;;;35.03;;
55692;SDS011;41590;53.366;5.212;2022-12-10T05:28:36;129.30;;;34.88;;
55692;SDS011;41590;53.366;5.212;2022-12-10T05:31:04;173.43;;;37.55;;
55692;SDS011;41590;53.366;5.212;2022-12-10T05:33:30;119.22;;;34.42;;
55692;SDS011;41590;53.366;5.212;2022-12-10T05:36:01;127.50;;;34.70;;
55692;SDS011;41590;53.366;5.212;2022-12-10T05:38:29;106.43;;;31.40;;
55692;SDS011;41590;53.366;5.212;2022-12-10T05:41:08;94.45;;;30.45;;
55692;SDS011;41590;53.366;5.212;2022-12-10T05:43:36;96.53;;;30.42;;
55692;SDS011;41590;53.366;5.212;2022-12-10T05:46:02;135.60;;;35.15;;
55692;SDS011;41590;53.366;5.212;2022-12-10T05:48:32;132.07;;;35.58;;
55692;SDS011;41590;53.366;5.212;2022-12-10T05:51:03;118.43;;;34.72;;
55692;SDS011;41590;53.366;5.212;2022-12-10T05:53:30;134.73;;;35.58;;
55692;SDS011;41590;53.366;5.212;2022-12-10T05:56:00;176.02;;;39.55;;
55692;SDS011;41590;53.366;5.212;2022-12-10T05:58:27;181.77;;;39.22;;
55692;SDS011;41590;53.366;5.212;2022-12-10T06:00:54;174.63;;;37.25;;
55692;SDS011;41590;53.366;5.212;2022-12-10T06:03:21;151.48;;;35.92;;
55692;SDS011;41590;53.366;5.212;2022-12-10T06:05:46;150.85;;;35.45;;
55692;SDS011;41590;53.366;5.212;2022-12-10T06:08:12;144.55;;;34.55;;
55692;SDS011;41590;53.366;5.212;2022-12-10T06:10:38;156.35;;;35.58;;
55692;SDS011;41590;53.366;5.212;2022-12-10T06:13:04;132.38;;;31.40;;
55692;SDS011;41590;53.366;5.212;2022-12-10T06:15:30;168.90;;;36.30;;
55692;SDS011;41590;53.366;5.212;2022-12-10T06:17:58;164.80;;;38.55;;
55692;SDS011;41590;53.366;5.212;2022-12-10T06:20:24;218.70;;;40.50;;
55692;SDS011;41590;53.366;5.212;2022-12-10T06:22:50;204.13;;;39.28;;
55692;SDS011;41590;53.366;5.212;2022-12-10T06:25:18;179.13;;;39.20;;
55692;SDS011;41590;53.366;5.212;2022-12-10T06:27:44;160.82;;;37.47;;
55692;SDS011;41590;53.366;5.212;2022-12-10T06:30:11;176.85;;;38.88;;
55692;SDS011;41590;53.366;5.212;2022-12-10T06:32:37;184.48;;;38.53;;
55692;SDS011;41590;53.366;5.212;2022-12-10T06:35:03;214.52;;;40.22;;
55692;SDS011;41590;53.366;5.212;2022-12-10T06:37:29;150.98;;;36.97;;
55692;SDS011;41590;53.366;5.212;2022-12-10T06:39:55;171.77;;;38.88;;
55692;SDS011;41590;53.366;5.212;2022-12-10T06:42:20;128.98;;;35.28;;
55692;SDS011;41590;53.366;5.212;2022-12-10T06:44:47;170.80;;;39.45;;
55692;SDS011;41590;53.366;5.212;2022-12-10T06:47:13;148.23;;;36.97;;
55692;SDS011;41590;53.366;5.212;2022-12-10T06:49:39;134.20;;;34.88;;
55692;SDS011;41590;53.366;5.212;2022-12-10T06:52:05;123.00;;;35.75;;
55692;SDS011;41590;53.366;5.212;2022-12-10T06:54:31;159.57;;;39.10;;
55692;SDS011;41590;53.366;5.212;2022-12-10T06:56:57;168.75;;;40.38;;
55692;SDS011;41590;53.366;5.212;2022-12-10T06:59:23;127.57;;;36.58;;
55692;SDS011;41590;53.366;5.212;2022-12-10T07:01:49;135.15;;;37.88;;
55692;SDS011;41590;53.366;5.212;2022-12-10T07:04:15;122.68;;;38.13;;
55692;SDS011;41590;53.366;5.212;2022-12-10T07:06:41;105.65;;;34.65;;
55692;SDS011;41590;53.366;5.212;2022-12-10T07:09:08;100.18;;;34.95;;
55692;SDS011;41590;53.366;5.212;2022-12-10T07:11:34;92.60;;;34.22;;
55692;SDS011;41590;53.366;5.212;2022-12-10T07:14:00;115.28;;;37.78;;
55692;SDS011;41590;53.366;5.212;2022-12-10T07:16:28;98.95;;;35.08;;
55692;SDS011;41590;53.366;5.212;2022-12-10T07:18:57;131.93;;;37.55;;
55692;SDS011;41590;53.366;5.212;2022-12-10T07:21:35;93.78;;;32.28;;
55692;SDS011;41590;53.366;5.212;2022-12-10T07:24:05;112.35;;;40.03;;
55692;SDS011;41590;53.366;5.212;2022-12-10T07:26:35;121.72;;;38.28;;
55692;SDS011;41590;53.366;5.212;2022-12-10T07:29:04;125.43;;;38.13;;
55692;SDS011;41590;53.366;5.212;2022-12-10T07:31:32;119.00;;;37.70;;
55692;SDS011;41590;53.366;5.212;2022-12-10T07:33:58;114.38;;;36.40;;
55692;SDS011;41590;53.366;5.212;2022-12-10T07:36:25;113.57;;;33.90;;
55692;SDS011;41590;53.366;5.212;2022-12-10T07:38:52;91.70;;;29.77;;
55692;SDS011;41590;53.366;5.212;2022-12-10T07:41:18;110.35;;;34.40;;
55692;SDS011;41590;53.366;5.212;2022-12-10T07:43:44;117.72;;;35.40;;
55692;SDS011;41590;53.366;5.212;2022-12-10T07:48:43;326.75;;;43.85;;
55692;SDS011;41590;53.366;5.212;2022-12-10T07:51:10;487.92;;;47.63;;
55692;SDS011;41590;53.366;5.212;2022-12-10T07:53:36;416.20;;;49.08;;
55692;SDS011;41590;53.366;5.212;2022-12-10T07:56:02;144.82;;;33.50;;
55692;SDS011;41590;53.366;5.212;2022-12-10T07:58:30;284.92;;;43.85;;
55692;SDS011;41590;53.366;5.212;2022-12-10T08:00:56;138.80;;;35.47;;
55692;SDS011;41590;53.366;5.212;2022-12-10T08:03:22;132.07;;;36.75;;
55692;SDS011;41590;53.366;5.212;2022-12-10T08:05:49;159.18;;;43.50;;
55692;SDS011;41590;53.366;5.212;2022-12-10T08:08:25;123.80;;;43.30;;
55692;SDS011;41590;53.366;5.212;2022-12-10T08:10:51;134.13;;;44.70;;
55692;SDS011;41590;53.366;5.212;2022-12-10T08:13:17;133.30;;;41.15;;
55692;SDS011;41590;53.366;5.212;2022-12-10T08:15:44;153.35;;;43.65;;
55692;SDS011;41590;53.366;5.212;2022-12-10T08:18:11;142.48;;;42.35;;
55692;SDS011;41590;53.366;5.212;2022-12-10T08:20:38;117.30;;;35.13;;
55692;SDS011;41590;53.366;5.212;2022-12-10T08:23:04;143.30;;;39.92;;
55692;SDS011;41590;53.366;5.212;2022-12-10T08:25:30;207.23;;;44.95;;
55692;SDS011;41590;53.366;5.212;2022-12-10T08:27:56;151.57;;;39.33;;
55692;SDS011;41590;53.366;5.212;2022-12-10T08:30:23;188.65;;;39.38;;
55692;SDS011;41590;53.366;5.212;2022-12-10T08:32:50;201.45;;;38.65;;
55692;SDS011;41590;53.366;5.212;2022-12-10T08:35:16;160.82;;;39.13;;
55692;SDS011;41590;53.366;5.212;2022-12-10T08:37:42;168.02;;;38.90;;
55692;SDS011;41590;53.366;5.212;2022-12-10T08:40:07;200.27;;;39.90;;
55692;SDS011;41590;53.366;5.212;2022-12-10T08:42:34;225.38;;;38.65;;
55692;SDS011;41590;53.366;5.212;2022-12-10T08:44:59;263.45;;;44.20;;
55692;SDS011;41590;53.366;5.212;2022-12-10T08:47:26;185.80;;;39.35;;
55692;SDS011;41590;53.366;5.212;2022-12-10T08:49:55;240.88;;;42.13;;
55692;SDS011;41590;53.366;5.212;2022-12-10T08:52:21;257.27;;;42.28;;
55692;SDS011;41590;53.366;5.212;2022-12-10T08:54:48;242.05;;;43.42;;
55692;SDS011;41590;53.366;5.212;2022-12-10T08:57:14;186.20;;;31.77;;
55692;SDS011;41590;53.366;5.212;2022-12-10T08:59:40;237.75;;;39.65;;
55692;SDS011;41590;53.366;5.212;2022-12-10T09:02:07;323.38;;;45.10;;
55692;SDS011;41590;53.366;5.212;2022-12-10T09:04:36;252.20;;;40.75;;
55692;SDS011;41590;53.366;5.212;2022-12-10T09:07:02;589.70;;;64.00;;
55692;SDS011;41590;53.366;5.212;2022-12-10T09:09:28;421.23;;;51.53;;
55692;SDS011;41590;53.366;5.212;2022-12-10T09:11:54;452.98;;;51.47;;
55692;SDS011;41590;53.366;5.212;2022-12-10T09:14:21;341.33;;;46.53;;
55692;SDS011;41590;53.366;5.212;2022-12-10T09:16:47;335.38;;;46.38;;
55692;SDS011;41590;53.366;5.212;2022-12-10T09:19:13;256.08;;;43.10;;
55692;SDS011;41590;53.366;5.212;2022-12-10T09:21:39;411.08;;;51.05;;
55692;SDS011;41590;53.366;5.212;2022-12-10T09:24:05;303.75;;;43.38;;
55692;SDS011;41590;53.366;5.212;2022-12-10T09:26:31;341.05;;;43.03;;
55692;SDS011;41590;53.366;5.212;2022-12-10T09:28:57;193.80;;;34.13;;
55692;SDS011;41590;53.366;5.212;2022-12-10T09:31:24;174.65;;;34.65;;
55692;SDS011;41590;53.366;5.212;2022-12-10T09:33:51;196.75;;;35.40;;
55692;SDS011;41590;53.366;5.212;2022-12-10T09:36:18;184.23;;;36.95;;
55692;SDS011;41590;53.366;5.212;2022-12-10T09:38:47;185.43;;;35.92;;
55692;SDS011;41590;53.366;5.212;2022-12-10T09:44:21;118.25;;;31.60;;
55692;SDS011;41590;53.366;5.212;2022-12-10T09:47:01;113.88;;;30.30;;
55692;SDS011;41590;53.366;5.212;2022-12-10T09:49:31;108.38;;;29.80;;
55692;SDS011;41590;53.366;5.212;2022-12-10T09:52:04;81.18;;;27.25;;
55692;SDS011;41590;53.366;5.212;2022-12-10T09:54:40;91.43;;;28.42;;
55692;SDS011;41590;53.366;5.212;2022-12-10T09:57:15;83.43;;;26.25;;
55692;SDS011;41590;53.366;5.212;2022-12-10T09:59:50;69.72;;;23.90;;
55692;SDS011;41590;53.366;5.212;2022-12-10T10:02:24;92.28;;;27.45;;
55692;SDS011;41590;53.366;5.212;2022-12-10T10:05:09;59.90;;;18.85;;
55692;SDS011;41590;53.366;5.212;2022-12-10T10:07:42;22.42;;;7.10;;
55692;SDS011;41590;53.366;5.212;2022-12-10T10:10:21;25.80;;;6.65;;
55692;SDS011;41590;53.366;5.212;2022-12-10T10:15:41;30.90;;;9.30;;
55692;SDS011;41590;53.366;5.212;2022-12-10T10:18:14;29.00;;;9.30;;
55692;SDS011;41590;53.366;5.212;2022-12-10T10:23:55;28.30;;;10.85;;
55692;SDS011;41590;53.366;5.212;2022-12-10T10:26:23;35.78;;;11.65;;
55692;SDS011;41590;53.366;5.212;2022-12-10T10:28:50;22.20;;;7.03;;
55692;SDS011;41590;53.366;5.212;2022-12-10T10:31:31;21.17;;;7.13;;
55692;SDS011;41590;53.366;5.212;2022-12-10T10:34:03;24.75;;;7.57;;
55692;SDS011;41590;53.366;5.212;2022-12-10T10:36:36;25.05;;;7.32;;
55692;SDS011;41590;53.366;5.212;2022-12-10T10:39:07;16.15;;;5.85;;
55692;SDS011;41590;53.366;5.212;2022-12-10T10:41:37;21.80;;;6.88;;
55692;SDS011;41590;53.366;5.212;2022-12-10T10:44:05;20.85;;;6.07;;
55692;SDS011;41590;53.366;5.212;2022-12-10T10:46:42;19.00;;;5.93;;
55692;SDS011;41590;53.366;5.212;2022-12-10T10:52:06;9.63;;;3.50;;
55692;SDS011;41590;53.366;5.212;2022-12-10T10:54:47;6.78;;;1.90;;
55692;SDS011;41590;53.366;5.212;2022-12-10T10:57:19;24.92;;;11.27;;
55692;SDS011;41590;53.366;5.212;2022-12-10T11:00:01;30.98;;;15.20;;
55692;SDS011;41590;53.366;5.212;2022-12-10T11:02:43;37.58;;;15.73;;
55692;SDS011;41590;53.366;5.212;2022-12-10T11:05:28;35.00;;;15.85;;
55692;SDS011;41590;53.366;5.212;2022-12-10T11:08:03;42.00;;;18.35;;
55692;SDS011;41590;53.366;5.212;2022-12-10T11:10:36;44.25;;;17.83;;
55692;SDS011;41590;53.366;5.212;2022-12-10T11:15:38;38.92;;;16.58;;
55692;SDS011;41590;53.366;5.212;2022-12-10T11:21:05;41.83;;;16.55;;
55692;SDS011;41590;53.366;5.212;2022-12-10T11:23:43;44.25;;;17.60;;
55692;SDS011;41590;53.366;5.212;2022-12-10T11:34:36;55.50;;;21.58;;
55692;SDS011;41590;53.366;5.212;2022-12-10T11:39:54;62.92;;;23.30;;
55692;SDS011;41590;53.366;5.212;2022-12-10T11:47:56;64.82;;;23.42;;
55692;SDS011;41590;53.366;5.212;2022-12-10T11:58:53;69.10;;;27.77;;
55692;SDS011;41590;53.366;5.212;2022-12-10T12:14:26;73.20;;;30.17;;
55692;SDS011;41590;53.366;5.212;2022-12-10T12:17:24;64.88;;;26.75;;
55692;SDS011;41590;53.366;5.212;2022-12-10T12:23:08;60.75;;;25.27;;
55692;SDS011;41590;53.366;5.212;2022-12-10T12:25:47;61.75;;;25.73;;
55692;SDS011;41590;53.366;5.212;2022-12-10T12:28:31;68.45;;;26.05;;
55692;SDS011;41590;53.366;5.212;2022-12-10T12:31:09;63.38;;;26.08;;
55692;SDS011;41590;53.366;5.212;2022-12-10T12:33:43;62.25;;;25.73;;
55692;SDS011;41590;53.366;5.212;2022-12-10T12:36:24;53.55;;;22.67;;
55692;SDS011;41590;53.366;5.212;2022-12-10T12:38:55;49.42;;;21.45;;
55692;SDS011;41590;53.366;5.212;2022-12-10T12:41:47;48.35;;;18.77;;
55692;SDS011;41590;53.366;5.212;2022-12-10T12:44:22;41.63;;;15.98;;
55692;SDS011;41590;53.366;5.212;2022-12-10T12:47:18;25.52;;;12.13;;
55692;SDS011;41590;53.366;5.212;2022-12-10T12:50:05;18.00;;;10.32;;
55692;SDS011;41590;53.366;5.212;2022-12-10T12:52:41;22.52;;;11.00;;
55692;SDS011;41590;53.366;5.212;2022-12-10T13:00:45;25.85;;;14.30;;
55692;SDS011;41590;53.366;5.212;2022-12-10T13:03:48;30.42;;;15.38;;
55692;SDS011;41590;53.366;5.212;2022-12-10T13:06:15;33.53;;;16.02;;
55692;SDS011;41590;53.366;5.212;2022-12-10T13:08:47;27.90;;;14.38;;
55692;SDS011;41590;53.366;5.212;2022-12-10T13:11:33;27.92;;;13.95;;
55692;SDS011;41590;53.366;5.212;2022-12-10T13:27:56;29.45;;;17.02;;
55692;SDS011;41590;53.366;5.212;2022-12-10T13:30:36;34.38;;;17.25;;
55692;SDS011;41590;53.366;5.212;2022-12-10T13:33:19;37.63;;;19.40;;
55692;SDS011;41590;53.366;5.212;2022-12-10T13:38:23;31.85;;;17.60;;
55692;SDS011;41590;53.366;5.212;2022-12-10T13:41:04;34.35;;;17.80;;
55692;SDS011;41590;53.366;5.212;2022-12-10T13:43:53;36.70;;;19.08;;
55692;SDS011;41590;53.366;5.212;2022-12-10T13:46:59;43.90;;;22.70;;
55692;SDS011;41590;53.366;5.212;2022-12-10T13:49:44;44.72;;;21.08;;
55692;SDS011;41590;53.366;5.212;2022-12-10T13:55:22;42.38;;;20.95;;
55692;SDS011;41590;53.366;5.212;2022-12-10T14:00:41;49.95;;;24.08;;
55692;SDS011;41590;53.366;5.212;2022-12-10T14:03:42;55.10;;;23.52;;
55692;SDS011;41590;53.366;5.212;2022-12-10T14:06:20;56.83;;;24.17;;
55692;SDS011;41590;53.366;5.212;2022-12-10T14:08:53;50.28;;;22.40;;
55692;SDS011;41590;53.366;5.212;2022-12-10T14:11:28;40.70;;;18.73;;
55692;SDS011;41590;53.366;5.212;2022-12-10T14:13:58;43.55;;;20.73;;
55692;SDS011;41590;53.366;5.212;2022-12-10T14:16:28;44.60;;;20.38;;
55692;SDS011;41590;53.366;5.212;2022-12-10T14:19:03;40.58;;;18.85;;
55692;SDS011;41590;53.366;5.212;2022-12-10T14:21:34;33.15;;;17.05;;
55692;SDS011;41590;53.366;5.212;2022-12-10T14:27:28;22.63;;;11.55;;
55692;SDS011;41590;53.366;5.212;2022-12-10T14:29:53;17.15;;;9.25;;
55692;SDS011;41590;53.366;5.212;2022-12-10T14:34:59;26.85;;;12.52;;
55692;SDS011;41590;53.366;5.212;2022-12-10T14:37:28;38.08;;;16.05;;
55692;SDS011;41590;53.366;5.212;2022-12-10T14:39:56;37.83;;;16.25;;
55692;SDS011;41590;53.366;5.212;2022-12-10T14:42:24;44.55;;;18.27;;
55692;SDS011;41590;53.366;5.212;2022-12-10T14:44:54;43.20;;;18.77;;
55692;SDS011;41590;53.366;5.212;2022-12-10T14:47:24;44.60;;;19.35;;
55692;SDS011;41590;53.366;5.212;2022-12-10T14:49:51;46.28;;;19.35;;
55692;SDS011;41590;53.366;5.212;2022-12-10T14:52:24;44.75;;;19.30;;
55692;SDS011;41590;53.366;5.212;2022-12-10T14:54:58;47.20;;;19.73;;
55692;SDS011;41590;53.366;5.212;2022-12-10T14:57:25;43.83;;;19.65;;
55692;SDS011;41590;53.366;5.212;2022-12-10T15:02:45;47.60;;;22.25;;
55692;SDS011;41590;53.366;5.212;2022-12-10T15:05:30;42.40;;;20.40;;
55692;SDS011;41590;53.366;5.212;2022-12-10T15:07:59;50.92;;;21.40;;
55692;SDS011;41590;53.366;5.212;2022-12-10T15:10:33;51.53;;;21.73;;
55692;SDS011;41590;53.366;5.212;2022-12-10T15:13:20;42.35;;;19.42;;
55692;SDS011;41590;53.366;5.212;2022-12-10T15:15:57;50.30;;;20.38;;
55692;SDS011;41590;53.366;5.212;2022-12-10T15:18:30;54.20;;;22.33;;
55692;SDS011;41590;53.366;5.212;2022-12-10T15:21:11;44.58;;;19.40;;
55692;SDS011;41590;53.366;5.212;2022-12-10T15:23:44;46.95;;;19.67;;
55692;SDS011;41590;53.366;5.212;2022-12-10T15:31:55;53.25;;;21.02;;
55692;SDS011;41590;53.366;5.212;2022-12-10T15:34:31;41.08;;;19.42;;
55692;SDS011;41590;53.366;5.212;2022-12-10T15:39:57;53.33;;;22.77;;
55692;SDS011;41590;53.366;5.212;2022-12-10T15:45:01;61.90;;;25.40;;
55692;SDS011;41590;53.366;5.212;2022-12-10T15:47:44;57.55;;;25.60;;
55692;SDS011;41590;53.366;5.212;2022-12-10T15:50:10;53.45;;;22.63;;
55692;SDS011;41590;53.366;5.212;2022-12-10T15:52:39;50.47;;;23.33;;
55692;SDS011;41590;53.366;5.212;2022-12-10T15:55:05;56.45;;;25.25;;
55692;SDS011;41590;53.366;5.212;2022-12-10T15:57:36;54.65;;;24.73;;
55692;SDS011;41590;53.366;5.212;2022-12-10T16:00:10;64.13;;;24.75;;
55692;SDS011;41590;53.366;5.212;2022-12-10T16:05:20;53.35;;;22.73;;
55692;SDS011;41590;53.366;5.212;2022-12-10T16:07:53;49.58;;;22.00;;
55692;SDS011;41590;53.366;5.212;2022-12-10T16:10:21;61.70;;;23.90;;
55692;SDS011;41590;53.366;5.212;2022-12-10T16:12:53;57.38;;;23.52;;
55692;SDS011;41590;53.366;5.212;2022-12-10T16:17:50;59.83;;;23.45;;
55692;SDS011;41590;53.366;5.212;2022-12-10T16:20:27;68.88;;;25.85;;
55692;SDS011;41590;53.366;5.212;2022-12-10T16:22:57;67.78;;;25.27;;
55692;SDS011;41590;53.366;5.212;2022-12-10T16:25:27;60.05;;;22.92;;
55692;SDS011;41590;53.366;5.212;2022-12-10T16:27:55;50.17;;;21.25;;
55692;SDS011;41590;53.366;5.212;2022-12-10T16:30:25;52.55;;;20.73;;
55692;SDS011;41590;53.366;5.212;2022-12-10T16:32:57;57.17;;;22.75;;
55692;SDS011;41590;53.366;5.212;2022-12-10T16:37:53;62.50;;;23.77;;
55692;SDS011;41590;53.366;5.212;2022-12-10T16:40:24;68.82;;;26.25;;
55692;SDS011;41590;53.366;5.212;2022-12-10T16:42:54;64.45;;;25.67;;
55692;SDS011;41590;53.366;5.212;2022-12-10T16:45:36;67.38;;;25.48;;
55692;SDS011;41590;53.366;5.212;2022-12-10T16:48:10;66.50;;;24.80;;
55692;SDS011;41590;53.366;5.212;2022-12-10T16:50:36;77.85;;;23.48;;
55692;SDS011;41590;53.366;5.212;2022-12-10T16:53:10;69.25;;;23.90;;
55692;SDS011;41590;53.366;5.212;2022-12-10T17:01:27;121.32;;;26.33;;